Portada
METAR-TAF:

METAR-TAF

Aeroports :

Hua Hin, Tailàndia

latitud: 12-35N, longitud: 099-57E, altitud: 5 m

Observació

L'informe es va fer fa 1 hora i 16 minuts, a les 09:00 UTC
Vent 13 kt del Sud/Sud-Est
Temperatura 30°C
Humitat 75%
Pressió 1009 hPa
Visibilitat: 9000 m
Escasses núvols a una alçada de 3000 ft

METAR: VTPH 240900Z 15013KT 9000 FEW030 30/25 Q1009 NOSIG

Hora: 17:16 (10:16 UTC)

Pronòstic

L'informe es va fer fa 5 hores i 16 minuts, a les 05:00 UTC
Pronòstic vàlid del 24 a les 06 UTC al 25 a les 06 UTC
Vent 8 kt del Sud-Est
Visibilitat: 8000 m
Escasses núvols a una alçada de 3000 ft
Evolucionant progressivament
l' 24 a les 12 UTC al 24 a les 14 UTC
Vent 5 kt del Sud-Oest
Evolucionant progressivament
l' 25 a les 00 UTC al 25 a les 02 UTC
Vent 8 kt del Sud-Est

TAF: VTPH 240500Z 2406/2506 13008KT 8000 FEW030 BECMG 2412/2414 23005KT BECMG 2500/2502 13008KT

Observacions i pronòstics meteorològics de més de 4000 aeroports (METAR i TAF).

Les estacions disponibles són els punts grocs i vermells al mapa.

Posi el ratolí al punt desitjat per veure el nom de l'estació.

Feu clic per veure les observacions i els pronòstics meteorològics.

Per canviar el mapa: feu clic els botons verds amb una creu de color negre per apropar; al botó verd amb un guió per allunyar la imatge; o en les fletxes verdes per a mapes adjacents.


METAR-TAF: